Terminal Aerodrome Forecast
Issued by NWS

Home | Current Version | Previous Version | Graphics & Text | Print | Product List | Glossary On
Versions: 1 2 3 4 5 6 7 8 9 10 11 12 13 14 15 16 17 18 19 20 21 22 23
467
FTUS43 KTOP 291134
TAFMHK
TAF
KMHK 291134Z 2912/3012 03016G23KT 3SM RA BR OVC005
     FM291900 03017G26KT 5SM -RA BR OVC005=

USA.gov is the U.S. government's official web portal to all federal, state and local government web resources and services.